sensor_id;sensor_type;location;lat;lon;timestamp;P1;durP1;ratioP1;P2;durP2;ratioP2
2638;SDS011;1329;51.384;7.122;2023-09-30T00:00:12;6.68;;;3.35;;
2638;SDS011;1329;51.384;7.122;2023-09-30T00:02:39;6.38;;;3.55;;
2638;SDS011;1329;51.384;7.122;2023-09-30T00:05:06;5.65;;;3.33;;
2638;SDS011;1329;51.384;7.122;2023-09-30T00:07:35;8.10;;;3.72;;
2638;SDS011;1329;51.384;7.122;2023-09-30T00:10:02;5.00;;;3.53;;
2638;SDS011;1329;51.384;7.122;2023-09-30T00:12:31;6.78;;;3.53;;
2638;SDS011;1329;51.384;7.122;2023-09-30T00:14:58;7.20;;;3.10;;
2638;SDS011;1329;51.384;7.122;2023-09-30T00:17:25;7.25;;;3.78;;
2638;SDS011;1329;51.384;7.122;2023-09-30T00:19:52;5.03;;;3.13;;
2638;SDS011;1329;51.384;7.122;2023-09-30T00:22:19;6.05;;;3.63;;
2638;SDS011;1329;51.384;7.122;2023-09-30T00:24:46;5.32;;;3.85;;
2638;SDS011;1329;51.384;7.122;2023-09-30T00:27:13;7.55;;;3.63;;
2638;SDS011;1329;51.384;7.122;2023-09-30T00:29:41;6.45;;;4.10;;
2638;SDS011;1329;51.384;7.122;2023-09-30T00:32:08;7.65;;;3.63;;
2638;SDS011;1329;51.384;7.122;2023-09-30T00:34:35;6.10;;;3.42;;
2638;SDS011;1329;51.384;7.122;2023-09-30T00:37:02;6.93;;;3.50;;
2638;SDS011;1329;51.384;7.122;2023-09-30T00:39:29;6.53;;;3.60;;
2638;SDS011;1329;51.384;7.122;2023-09-30T00:41:58;5.90;;;3.22;;
2638;SDS011;1329;51.384;7.122;2023-09-30T00:44:25;5.80;;;3.55;;
2638;SDS011;1329;51.384;7.122;2023-09-30T00:46:54;6.18;;;3.70;;
2638;SDS011;1329;51.384;7.122;2023-09-30T00:49:22;6.32;;;3.38;;
2638;SDS011;1329;51.384;7.122;2023-09-30T00:51:51;5.97;;;3.45;;
2638;SDS011;1329;51.384;7.122;2023-09-30T00:54:19;7.05;;;3.60;;
2638;SDS011;1329;51.384;7.122;2023-09-30T00:56:48;6.20;;;3.00;;
2638;SDS011;1329;51.384;7.122;2023-09-30T00:59:17;4.32;;;3.13;;
2638;SDS011;1329;51.384;7.122;2023-09-30T01:01:46;7.03;;;3.63;;
2638;SDS011;1329;51.384;7.122;2023-09-30T01:04:15;8.10;;;3.50;;
2638;SDS011;1329;51.384;7.122;2023-09-30T01:06:42;6.07;;;2.90;;
2638;SDS011;1329;51.384;7.122;2023-09-30T01:09:09;5.03;;;3.70;;
2638;SDS011;1329;51.384;7.122;2023-09-30T01:11:37;4.57;;;3.20;;
2638;SDS011;1329;51.384;7.122;2023-09-30T01:16:52;6.93;;;3.72;;
2638;SDS011;1329;51.384;7.122;2023-09-30T01:19:21;5.63;;;3.70;;
2638;SDS011;1329;51.384;7.122;2023-09-30T01:21:52;6.70;;;3.80;;
2638;SDS011;1329;51.384;7.122;2023-09-30T01:24:21;8.10;;;3.58;;
2638;SDS011;1329;51.384;7.122;2023-09-30T01:26:48;6.47;;;3.45;;
2638;SDS011;1329;51.384;7.122;2023-09-30T01:29:15;5.93;;;3.38;;
2638;SDS011;1329;51.384;7.122;2023-09-30T01:31:42;5.78;;;3.25;;
2638;SDS011;1329;51.384;7.122;2023-09-30T01:34:12;5.38;;;3.35;;
2638;SDS011;1329;51.384;7.122;2023-09-30T01:36:40;5.90;;;3.30;;
2638;SDS011;1329;51.384;7.122;2023-09-30T01:39:09;7.25;;;3.45;;
2638;SDS011;1329;51.384;7.122;2023-09-30T01:41:37;5.85;;;3.13;;
2638;SDS011;1329;51.384;7.122;2023-09-30T01:44:04;7.43;;;3.60;;
2638;SDS011;1329;51.384;7.122;2023-09-30T01:46:31;5.95;;;3.50;;
2638;SDS011;1329;51.384;7.122;2023-09-30T01:48:59;5.72;;;3.00;;
2638;SDS011;1329;51.384;7.122;2023-09-30T01:51:26;5.32;;;3.15;;
2638;SDS011;1329;51.384;7.122;2023-09-30T01:53:53;10.85;;;3.63;;
2638;SDS011;1329;51.384;7.122;2023-09-30T01:56:22;8.63;;;3.33;;
2638;SDS011;1329;51.384;7.122;2023-09-30T01:58:49;6.75;;;3.22;;
2638;SDS011;1329;51.384;7.122;2023-09-30T02:01:17;6.80;;;3.55;;
2638;SDS011;1329;51.384;7.122;2023-09-30T02:03:44;7.35;;;3.55;;
2638;SDS011;1329;51.384;7.122;2023-09-30T02:06:12;6.10;;;3.30;;
2638;SDS011;1329;51.384;7.122;2023-09-30T02:08:39;5.72;;;3.25;;
2638;SDS011;1329;51.384;7.122;2023-09-30T02:11:07;6.40;;;3.40;;
2638;SDS011;1329;51.384;7.122;2023-09-30T02:13:40;7.63;;;3.17;;
2638;SDS011;1329;51.384;7.122;2023-09-30T02:16:10;4.75;;;3.63;;
2638;SDS011;1329;51.384;7.122;2023-09-30T02:18:38;7.80;;;3.17;;
2638;SDS011;1329;51.384;7.122;2023-09-30T02:21:06;6.70;;;3.40;;
2638;SDS011;1329;51.384;7.122;2023-09-30T02:23:35;4.22;;;2.95;;
2638;SDS011;1329;51.384;7.122;2023-09-30T02:26:01;8.20;;;3.42;;
2638;SDS011;1329;51.384;7.122;2023-09-30T02:28:29;5.80;;;3.30;;
2638;SDS011;1329;51.384;7.122;2023-09-30T02:30:59;4.68;;;2.70;;
2638;SDS011;1329;51.384;7.122;2023-09-30T02:33:26;4.85;;;3.03;;
2638;SDS011;1329;51.384;7.122;2023-09-30T02:35:53;7.95;;;3.83;;
2638;SDS011;1329;51.384;7.122;2023-09-30T02:38:20;5.68;;;3.13;;
2638;SDS011;1329;51.384;7.122;2023-09-30T02:40:48;6.80;;;3.38;;
2638;SDS011;1329;51.384;7.122;2023-09-30T02:43:16;5.43;;;3.00;;
2638;SDS011;1329;51.384;7.122;2023-09-30T02:45:45;5.35;;;3.17;;
2638;SDS011;1329;51.384;7.122;2023-09-30T02:48:16;4.40;;;2.72;;
2638;SDS011;1329;51.384;7.122;2023-09-30T02:50:43;7.03;;;3.35;;
2638;SDS011;1329;51.384;7.122;2023-09-30T02:53:11;5.65;;;3.30;;
2638;SDS011;1329;51.384;7.122;2023-09-30T02:55:38;6.25;;;3.00;;
2638;SDS011;1329;51.384;7.122;2023-09-30T02:58:06;5.40;;;2.80;;
2638;SDS011;1329;51.384;7.122;2023-09-30T03:00:33;4.50;;;3.10;;
2638;SDS011;1329;51.384;7.122;2023-09-30T03:03:01;8.05;;;3.55;;
2638;SDS011;1329;51.384;7.122;2023-09-30T03:05:30;4.65;;;3.22;;
2638;SDS011;1329;51.384;7.122;2023-09-30T03:07:58;5.47;;;3.00;;
2638;SDS011;1329;51.384;7.122;2023-09-30T03:10:26;6.38;;;3.33;;
2638;SDS011;1329;51.384;7.122;2023-09-30T03:12:54;8.43;;;3.70;;
2638;SDS011;1329;51.384;7.122;2023-09-30T03:15:21;6.13;;;3.42;;
2638;SDS011;1329;51.384;7.122;2023-09-30T03:17:49;8.10;;;3.88;;
2638;SDS011;1329;51.384;7.122;2023-09-30T03:20:17;7.22;;;3.50;;
2638;SDS011;1329;51.384;7.122;2023-09-30T03:22:47;6.47;;;3.55;;
2638;SDS011;1329;51.384;7.122;2023-09-30T03:25:15;5.10;;;3.30;;
2638;SDS011;1329;51.384;7.122;2023-09-30T03:27:43;6.85;;;3.50;;
2638;SDS011;1329;51.384;7.122;2023-09-30T03:30:11;5.25;;;3.25;;
2638;SDS011;1329;51.384;7.122;2023-09-30T03:32:40;5.32;;;3.40;;
2638;SDS011;1329;51.384;7.122;2023-09-30T03:35:09;5.35;;;3.42;;
2638;SDS011;1329;51.384;7.122;2023-09-30T03:37:40;4.68;;;3.03;;
2638;SDS011;1329;51.384;7.122;2023-09-30T03:40:09;5.65;;;3.42;;
2638;SDS011;1329;51.384;7.122;2023-09-30T03:42:44;8.40;;;3.00;;
2638;SDS011;1329;51.384;7.122;2023-09-30T03:45:14;4.40;;;2.95;;
2638;SDS011;1329;51.384;7.122;2023-09-30T03:47:42;5.90;;;3.10;;
2638;SDS011;1329;51.384;7.122;2023-09-30T03:50:14;4.43;;;2.92;;
2638;SDS011;1329;51.384;7.122;2023-09-30T03:52:42;5.35;;;3.10;;
2638;SDS011;1329;51.384;7.122;2023-09-30T03:55:11;5.72;;;3.50;;
2638;SDS011;1329;51.384;7.122;2023-09-30T03:57:43;6.35;;;3.20;;
2638;SDS011;1329;51.384;7.122;2023-09-30T04:00:13;6.32;;;3.42;;
2638;SDS011;1329;51.384;7.122;2023-09-30T04:02:43;6.85;;;3.28;;
2638;SDS011;1329;51.384;7.122;2023-09-30T04:05:13;6.10;;;3.50;;
2638;SDS011;1329;51.384;7.122;2023-09-30T04:07:55;7.63;;;3.65;;
2638;SDS011;1329;51.384;7.122;2023-09-30T04:10:24;6.00;;;3.80;;
2638;SDS011;1329;51.384;7.122;2023-09-30T04:12:55;6.85;;;3.80;;
2638;SDS011;1329;51.384;7.122;2023-09-30T04:15:26;7.93;;;3.55;;
2638;SDS011;1329;51.384;7.122;2023-09-30T04:17:54;6.13;;;3.75;;
2638;SDS011;1329;51.384;7.122;2023-09-30T04:20:24;5.70;;;3.47;;
2638;SDS011;1329;51.384;7.122;2023-09-30T04:22:52;5.90;;;3.55;;
2638;SDS011;1329;51.384;7.122;2023-09-30T04:25:26;7.40;;;4.13;;
2638;SDS011;1329;51.384;7.122;2023-09-30T04:27:56;6.43;;;3.88;;
2638;SDS011;1329;51.384;7.122;2023-09-30T04:30:24;7.32;;;3.60;;
2638;SDS011;1329;51.384;7.122;2023-09-30T04:32:52;5.65;;;3.30;;
2638;SDS011;1329;51.384;7.122;2023-09-30T04:35:37;6.07;;;3.40;;
2638;SDS011;1329;51.384;7.122;2023-09-30T04:38:19;6.70;;;3.83;;
2638;SDS011;1329;51.384;7.122;2023-09-30T04:41:04;7.82;;;4.63;;
2638;SDS011;1329;51.384;7.122;2023-09-30T04:43:35;6.93;;;5.05;;
2638;SDS011;1329;51.384;7.122;2023-09-30T04:46:07;7.63;;;4.70;;
2638;SDS011;1329;51.384;7.122;2023-09-30T04:48:44;9.57;;;5.45;;
2638;SDS011;1329;51.384;7.122;2023-09-30T04:51:19;8.23;;;5.63;;
2638;SDS011;1329;51.384;7.122;2023-09-30T04:54:01;8.55;;;6.18;;
2638;SDS011;1329;51.384;7.122;2023-09-30T04:56:37;8.07;;;6.10;;
2638;SDS011;1329;51.384;7.122;2023-09-30T04:59:04;9.80;;;6.35;;
2638;SDS011;1329;51.384;7.122;2023-09-30T05:01:33;9.38;;;6.70;;
2638;SDS011;1329;51.384;7.122;2023-09-30T05:04:23;8.63;;;6.85;;
2638;SDS011;1329;51.384;7.122;2023-09-30T05:06:54;10.57;;;7.28;;
2638;SDS011;1329;51.384;7.122;2023-09-30T05:09:22;10.88;;;7.72;;
2638;SDS011;1329;51.384;7.122;2023-09-30T05:11:58;10.73;;;7.88;;
2638;SDS011;1329;51.384;7.122;2023-09-30T05:14:43;10.20;;;7.55;;
2638;SDS011;1329;51.384;7.122;2023-09-30T05:17:13;10.18;;;7.53;;
2638;SDS011;1329;51.384;7.122;2023-09-30T05:20:06;9.05;;;6.85;;
2638;SDS011;1329;51.384;7.122;2023-09-30T05:25:39;11.35;;;7.47;;
2638;SDS011;1329;51.384;7.122;2023-09-30T05:28:19;12.02;;;8.80;;
2638;SDS011;1329;51.384;7.122;2023-09-30T05:30:46;10.90;;;8.45;;
2638;SDS011;1329;51.384;7.122;2023-09-30T05:33:15;10.45;;;7.85;;
2638;SDS011;1329;51.384;7.122;2023-09-30T05:35:59;11.95;;;7.57;;
2638;SDS011;1329;51.384;7.122;2023-09-30T05:38:34;10.65;;;7.18;;
2638;SDS011;1329;51.384;7.122;2023-09-30T05:41:15;10.43;;;6.95;;
2638;SDS011;1329;51.384;7.122;2023-09-30T05:43:47;8.63;;;6.57;;
2638;SDS011;1329;51.384;7.122;2023-09-30T05:46:20;10.98;;;7.22;;
2638;SDS011;1329;51.384;7.122;2023-09-30T05:48:53;8.85;;;6.53;;
2638;SDS011;1329;51.384;7.122;2023-09-30T05:51:23;9.60;;;6.88;;
2638;SDS011;1329;51.384;7.122;2023-09-30T05:54:37;8.07;;;6.18;;
2638;SDS011;1329;51.384;7.122;2023-09-30T05:57:19;11.40;;;7.07;;
2638;SDS011;1329;51.384;7.122;2023-09-30T06:00:00;11.25;;;6.75;;
2638;SDS011;1329;51.384;7.122;2023-09-30T06:02:31;11.05;;;7.72;;
2638;SDS011;1329;51.384;7.122;2023-09-30T06:06:20;10.20;;;6.80;;
2638;SDS011;1329;51.384;7.122;2023-09-30T06:08:34;10.88;;;7.68;;
2638;SDS011;1329;51.384;7.122;2023-09-30T06:11:21;10.23;;;7.03;;
2638;SDS011;1329;51.384;7.122;2023-09-30T06:14:03;10.50;;;7.63;;
2638;SDS011;1329;51.384;7.122;2023-09-30T06:16:55;12.35;;;8.00;;
2638;SDS011;1329;51.384;7.122;2023-09-30T06:19:31;11.02;;;8.00;;
2638;SDS011;1329;51.384;7.122;2023-09-30T06:22:22;12.23;;;7.53;;
2638;SDS011;1329;51.384;7.122;2023-09-30T06:25:27;10.18;;;7.18;;
2638;SDS011;1329;51.384;7.122;2023-09-30T06:28:05;11.52;;;7.60;;
2638;SDS011;1329;51.384;7.122;2023-09-30T06:30:56;10.05;;;6.75;;
2638;SDS011;1329;51.384;7.122;2023-09-30T06:33:25;10.55;;;7.20;;
2638;SDS011;1329;51.384;7.122;2023-09-30T06:35:55;9.43;;;6.97;;
2638;SDS011;1329;51.384;7.122;2023-09-30T06:38:30;13.73;;;7.45;;
2638;SDS011;1329;51.384;7.122;2023-09-30T06:40:59;10.43;;;7.43;;
2638;SDS011;1329;51.384;7.122;2023-09-30T06:43:28;9.32;;;7.40;;
2638;SDS011;1329;51.384;7.122;2023-09-30T06:46:10;10.85;;;6.97;;
2638;SDS011;1329;51.384;7.122;2023-09-30T06:48:42;13.40;;;8.40;;
2638;SDS011;1329;51.384;7.122;2023-09-30T06:51:15;10.05;;;7.20;;
2638;SDS011;1329;51.384;7.122;2023-09-30T06:53:51;10.38;;;7.32;;
2638;SDS011;1329;51.384;7.122;2023-09-30T06:56:21;11.75;;;7.57;;
2638;SDS011;1329;51.384;7.122;2023-09-30T06:58:48;11.77;;;7.55;;
2638;SDS011;1329;51.384;7.122;2023-09-30T07:01:15;13.85;;;8.05;;
2638;SDS011;1329;51.384;7.122;2023-09-30T07:03:44;11.75;;;7.85;;
2638;SDS011;1329;51.384;7.122;2023-09-30T07:06:12;14.98;;;8.38;;
2638;SDS011;1329;51.384;7.122;2023-09-30T07:08:50;12.07;;;7.70;;
2638;SDS011;1329;51.384;7.122;2023-09-30T07:11:17;10.35;;;7.72;;
2638;SDS011;1329;51.384;7.122;2023-09-30T07:13:56;10.10;;;7.90;;
2638;SDS011;1329;51.384;7.122;2023-09-30T07:16:26;10.23;;;7.43;;
2638;SDS011;1329;51.384;7.122;2023-09-30T07:18:55;10.60;;;7.80;;
2638;SDS011;1329;51.384;7.122;2023-09-30T07:21:22;10.38;;;7.57;;
2638;SDS011;1329;51.384;7.122;2023-09-30T07:23:49;10.25;;;7.55;;
2638;SDS011;1329;51.384;7.122;2023-09-30T07:26:31;10.63;;;7.10;;
2638;SDS011;1329;51.384;7.122;2023-09-30T07:29:08;9.20;;;6.03;;
2638;SDS011;1329;51.384;7.122;2023-09-30T07:31:35;11.55;;;7.53;;
2638;SDS011;1329;51.384;7.122;2023-09-30T07:34:04;8.15;;;6.40;;
2638;SDS011;1329;51.384;7.122;2023-09-30T07:36:32;9.80;;;6.82;;
2638;SDS011;1329;51.384;7.122;2023-09-30T07:38:59;10.88;;;7.07;;
2638;SDS011;1329;51.384;7.122;2023-09-30T07:41:26;10.98;;;6.75;;
2638;SDS011;1329;51.384;7.122;2023-09-30T07:43:53;10.23;;;6.07;;
2638;SDS011;1329;51.384;7.122;2023-09-30T07:46:20;8.30;;;6.03;;
2638;SDS011;1329;51.384;7.122;2023-09-30T07:48:47;9.00;;;6.60;;
2638;SDS011;1329;51.384;7.122;2023-09-30T07:51:16;9.52;;;6.13;;
2638;SDS011;1329;51.384;7.122;2023-09-30T07:53:43;8.52;;;6.15;;
2638;SDS011;1329;51.384;7.122;2023-09-30T07:56:10;9.63;;;6.28;;
2638;SDS011;1329;51.384;7.122;2023-09-30T07:58:37;7.50;;;5.85;;
2638;SDS011;1329;51.384;7.122;2023-09-30T08:01:04;8.50;;;5.82;;
2638;SDS011;1329;51.384;7.122;2023-09-30T08:03:34;8.98;;;6.00;;
2638;SDS011;1329;51.384;7.122;2023-09-30T08:06:02;8.07;;;6.00;;
2638;SDS011;1329;51.384;7.122;2023-09-30T08:08:31;9.38;;;6.15;;
2638;SDS011;1329;51.384;7.122;2023-09-30T08:10:58;8.23;;;5.75;;
2638;SDS011;1329;51.384;7.122;2023-09-30T08:13:25;9.02;;;6.43;;
2638;SDS011;1329;51.384;7.122;2023-09-30T08:15:54;8.88;;;5.22;;
2638;SDS011;1329;51.384;7.122;2023-09-30T08:18:21;7.75;;;5.35;;
2638;SDS011;1329;51.384;7.122;2023-09-30T08:20:48;9.15;;;5.50;;
2638;SDS011;1329;51.384;7.122;2023-09-30T08:23:15;9.88;;;5.88;;
2638;SDS011;1329;51.384;7.122;2023-09-30T08:25:43;8.77;;;6.68;;
2638;SDS011;1329;51.384;7.122;2023-09-30T08:28:12;8.60;;;5.63;;
2638;SDS011;1329;51.384;7.122;2023-09-30T08:30:39;9.55;;;5.43;;
2638;SDS011;1329;51.384;7.122;2023-09-30T08:33:06;10.68;;;5.90;;
2638;SDS011;1329;51.384;7.122;2023-09-30T08:35:35;8.55;;;5.70;;
2638;SDS011;1329;51.384;7.122;2023-09-30T08:38:03;11.65;;;5.82;;
2638;SDS011;1329;51.384;7.122;2023-09-30T08:40:30;10.18;;;5.90;;
2638;SDS011;1329;51.384;7.122;2023-09-30T08:42:59;9.18;;;5.50;;
2638;SDS011;1329;51.384;7.122;2023-09-30T08:45:29;9.80;;;5.93;;
2638;SDS011;1329;51.384;7.122;2023-09-30T08:47:59;10.65;;;6.22;;
2638;SDS011;1329;51.384;7.122;2023-09-30T08:50:30;8.27;;;5.80;;
2638;SDS011;1329;51.384;7.122;2023-09-30T08:52:58;9.70;;;6.35;;
2638;SDS011;1329;51.384;7.122;2023-09-30T08:55:27;9.35;;;5.90;;
2638;SDS011;1329;51.384;7.122;2023-09-30T08:57:59;8.32;;;5.40;;
2638;SDS011;1329;51.384;7.122;2023-09-30T09:00:27;10.25;;;6.15;;
2638;SDS011;1329;51.384;7.122;2023-09-30T09:02:54;8.50;;;5.82;;
2638;SDS011;1329;51.384;7.122;2023-09-30T09:05:21;8.48;;;5.90;;
2638;SDS011;1329;51.384;7.122;2023-09-30T09:07:48;8.02;;;5.85;;
2638;SDS011;1329;51.384;7.122;2023-09-30T09:10:16;8.40;;;6.18;;
2638;SDS011;1329;51.384;7.122;2023-09-30T09:12:43;8.70;;;5.75;;
2638;SDS011;1329;51.384;7.122;2023-09-30T09:15:24;8.38;;;5.35;;
2638;SDS011;1329;51.384;7.122;2023-09-30T09:17:53;8.23;;;5.38;;
2638;SDS011;1329;51.384;7.122;2023-09-30T09:20:21;8.77;;;5.75;;
2638;SDS011;1329;51.384;7.122;2023-09-30T09:22:53;8.82;;;5.70;;
2638;SDS011;1329;51.384;7.122;2023-09-30T09:25:25;8.13;;;5.63;;
2638;SDS011;1329;51.384;7.122;2023-09-30T09:27:52;7.55;;;5.50;;
2638;SDS011;1329;51.384;7.122;2023-09-30T09:30:25;6.95;;;5.43;;
2638;SDS011;1329;51.384;7.122;2023-09-30T09:32:54;8.48;;;5.78;;
2638;SDS011;1329;51.384;7.122;2023-09-30T09:35:26;7.82;;;5.45;;
2638;SDS011;1329;51.384;7.122;2023-09-30T09:37:58;8.35;;;5.80;;
2638;SDS011;1329;51.384;7.122;2023-09-30T09:40:30;7.32;;;5.25;;
2638;SDS011;1329;51.384;7.122;2023-09-30T09:42:59;8.00;;;5.63;;
2638;SDS011;1329;51.384;7.122;2023-09-30T09:45:32;7.55;;;5.10;;
2638;SDS011;1329;51.384;7.122;2023-09-30T09:48:01;7.05;;;4.65;;
2638;SDS011;1329;51.384;7.122;2023-09-30T09:50:29;5.88;;;4.57;;
2638;SDS011;1329;51.384;7.122;2023-09-30T09:52:58;6.20;;;4.10;;
2638;SDS011;1329;51.384;7.122;2023-09-30T09:55:26;5.00;;;4.28;;
2638;SDS011;1329;51.384;7.122;2023-09-30T09:57:53;5.85;;;4.18;;
2638;SDS011;1329;51.384;7.122;2023-09-30T10:00:21;5.75;;;3.85;;
2638;SDS011;1329;51.384;7.122;2023-09-30T10:02:51;6.20;;;4.10;;
2638;SDS011;1329;51.384;7.122;2023-09-30T10:05:19;6.85;;;3.80;;
2638;SDS011;1329;51.384;7.122;2023-09-30T10:07:53;6.95;;;4.25;;
2638;SDS011;1329;51.384;7.122;2023-09-30T10:10:23;5.47;;;3.75;;
2638;SDS011;1329;51.384;7.122;2023-09-30T10:12:51;5.68;;;4.00;;
2638;SDS011;1329;51.384;7.122;2023-09-30T10:15:34;5.82;;;3.75;;
2638;SDS011;1329;51.384;7.122;2023-09-30T10:18:06;7.95;;;3.80;;
2638;SDS011;1329;51.384;7.122;2023-09-30T10:20:36;5.15;;;3.80;;
2638;SDS011;1329;51.384;7.122;2023-09-30T10:23:21;6.03;;;3.65;;
2638;SDS011;1329;51.384;7.122;2023-09-30T10:25:51;5.95;;;3.97;;
2638;SDS011;1329;51.384;7.122;2023-09-30T10:28:32;5.13;;;3.58;;
2638;SDS011;1329;51.384;7.122;2023-09-30T10:31:11;7.53;;;4.10;;
2638;SDS011;1329;51.384;7.122;2023-09-30T10:36:47;4.78;;;3.13;;
2638;SDS011;1329;51.384;7.122;2023-09-30T10:51:02;4.60;;;3.03;;
2638;SDS011;1329;51.384;7.122;2023-09-30T10:53:45;5.13;;;3.20;;
2638;SDS011;1329;51.384;7.122;2023-09-30T10:56:16;4.50;;;3.03;;
2638;SDS011;1329;51.384;7.122;2023-09-30T10:58:45;5.55;;;3.20;;
2638;SDS011;1329;51.384;7.122;2023-09-30T11:01:15;3.53;;;3.00;;
2638;SDS011;1329;51.384;7.122;2023-09-30T11:03:44;5.13;;;3.42;;
2638;SDS011;1329;51.384;7.122;2023-09-30T11:06:14;4.35;;;3.28;;
2638;SDS011;1329;51.384;7.122;2023-09-30T11:08:45;5.45;;;3.40;;
2638;SDS011;1329;51.384;7.122;2023-09-30T11:11:36;4.28;;;3.10;;
2638;SDS011;1329;51.384;7.122;2023-09-30T11:14:20;3.97;;;3.25;;
2638;SDS011;1329;51.384;7.122;2023-09-30T11:16:49;5.38;;;3.25;;
2638;SDS011;1329;51.384;7.122;2023-09-30T11:19:18;4.38;;;3.15;;
2638;SDS011;1329;51.384;7.122;2023-09-30T11:21:48;5.65;;;3.10;;
2638;SDS011;1329;51.384;7.122;2023-09-30T11:24:18;4.60;;;3.10;;
2638;SDS011;1329;51.384;7.122;2023-09-30T11:26:46;5.97;;;3.00;;
2638;SDS011;1329;51.384;7.122;2023-09-30T11:29:14;5.30;;;2.78;;
2638;SDS011;1329;51.384;7.122;2023-09-30T11:31:43;3.88;;;2.80;;
2638;SDS011;1329;51.384;7.122;2023-09-30T11:34:12;3.78;;;2.67;;
2638;SDS011;1329;51.384;7.122;2023-09-30T11:36:40;4.18;;;3.03;;
2638;SDS011;1329;51.384;7.122;2023-09-30T11:39:21;3.72;;;2.97;;
2638;SDS011;1329;51.384;7.122;2023-09-30T11:41:49;3.90;;;2.90;;
2638;SDS011;1329;51.384;7.122;2023-09-30T11:44:17;4.05;;;3.20;;
2638;SDS011;1329;51.384;7.122;2023-09-30T11:46:48;4.88;;;3.35;;
2638;SDS011;1329;51.384;7.122;2023-09-30T11:49:24;4.45;;;3.33;;
2638;SDS011;1329;51.384;7.122;2023-09-30T11:51:55;5.22;;;3.30;;
2638;SDS011;1329;51.384;7.122;2023-09-30T11:54:28;6.38;;;4.20;;
2638;SDS011;1329;51.384;7.122;2023-09-30T11:57:02;5.90;;;3.58;;
2638;SDS011;1329;51.384;7.122;2023-09-30T11:59:31;5.45;;;3.60;;
2638;SDS011;1329;51.384;7.122;2023-09-30T12:01:58;5.18;;;3.67;;
2638;SDS011;1329;51.384;7.122;2023-09-30T12:04:25;4.60;;;3.40;;
2638;SDS011;1329;51.384;7.122;2023-09-30T12:06:52;5.07;;;3.70;;
2638;SDS011;1329;51.384;7.122;2023-09-30T12:09:20;4.43;;;3.50;;
2638;SDS011;1329;51.384;7.122;2023-09-30T12:11:50;4.18;;;3.30;;
2638;SDS011;1329;51.384;7.122;2023-09-30T12:14:18;4.88;;;3.75;;
2638;SDS011;1329;51.384;7.122;2023-09-30T12:16:46;5.85;;;3.40;;
2638;SDS011;1329;51.384;7.122;2023-09-30T12:19:14;4.55;;;3.58;;
2638;SDS011;1329;51.384;7.122;2023-09-30T12:21:41;7.30;;;4.05;;
2638;SDS011;1329;51.384;7.122;2023-09-30T12:24:12;5.00;;;3.67;;
2638;SDS011;1329;51.384;7.122;2023-09-30T12:26:44;5.00;;;3.63;;
2638;SDS011;1329;51.384;7.122;2023-09-30T12:29:13;4.53;;;3.50;;
2638;SDS011;1329;51.384;7.122;2023-09-30T12:31:41;4.90;;;3.10;;
2638;SDS011;1329;51.384;7.122;2023-09-30T12:34:09;4.75;;;3.35;;
2638;SDS011;1329;51.384;7.122;2023-09-30T12:36:38;4.45;;;3.50;;
2638;SDS011;1329;51.384;7.122;2023-09-30T12:39:08;4.85;;;3.08;;
2638;SDS011;1329;51.384;7.122;2023-09-30T12:41:36;4.30;;;3.20;;
2638;SDS011;1329;51.384;7.122;2023-09-30T12:44:06;4.70;;;3.53;;
2638;SDS011;1329;51.384;7.122;2023-09-30T12:46:33;5.70;;;3.97;;
2638;SDS011;1329;51.384;7.122;2023-09-30T12:49:02;4.72;;;3.72;;
2638;SDS011;1329;51.384;7.122;2023-09-30T12:51:30;4.82;;;3.63;;
2638;SDS011;1329;51.384;7.122;2023-09-30T12:53:58;4.28;;;3.22;;
2638;SDS011;1329;51.384;7.122;2023-09-30T12:56:25;4.45;;;3.10;;
2638;SDS011;1329;51.384;7.122;2023-09-30T12:58:54;4.53;;;3.60;;
2638;SDS011;1329;51.384;7.122;2023-09-30T13:01:22;4.70;;;3.25;;
2638;SDS011;1329;51.384;7.122;2023-09-30T13:03:51;5.35;;;3.50;;
2638;SDS011;1329;51.384;7.122;2023-09-30T13:06:18;6.28;;;3.60;;
2638;SDS011;1329;51.384;7.122;2023-09-30T13:08:46;3.25;;;2.83;;
2638;SDS011;1329;51.384;7.122;2023-09-30T13:11:13;4.07;;;3.00;;
2638;SDS011;1329;51.384;7.122;2023-09-30T13:13:40;4.03;;;2.90;;
2638;SDS011;1329;51.384;7.122;2023-09-30T13:16:09;4.20;;;2.80;;
2638;SDS011;1329;51.384;7.122;2023-09-30T13:18:39;4.32;;;3.10;;
2638;SDS011;1329;51.384;7.122;2023-09-30T13:21:06;3.97;;;2.90;;
2638;SDS011;1329;51.384;7.122;2023-09-30T13:23:33;3.15;;;2.53;;
2638;SDS011;1329;51.384;7.122;2023-09-30T13:26:00;3.22;;;2.88;;
2638;SDS011;1329;51.384;7.122;2023-09-30T13:28:28;3.13;;;2.55;;
2638;SDS011;1329;51.384;7.122;2023-09-30T13:30:55;3.83;;;2.88;;
2638;SDS011;1329;51.384;7.122;2023-09-30T13:33:22;3.90;;;2.60;;
2638;SDS011;1329;51.384;7.122;2023-09-30T13:35:51;3.55;;;2.75;;
2638;SDS011;1329;51.384;7.122;2023-09-30T13:38:20;4.97;;;2.97;;
2638;SDS011;1329;51.384;7.122;2023-09-30T13:40:47;5.10;;;3.00;;
2638;SDS011;1329;51.384;7.122;2023-09-30T13:43:14;4.28;;;2.30;;
2638;SDS011;1329;51.384;7.122;2023-09-30T13:45:41;2.10;;;1.90;;
2638;SDS011;1329;51.384;7.122;2023-09-30T13:48:08;4.15;;;2.38;;
2638;SDS011;1329;51.384;7.122;2023-09-30T13:50:36;3.83;;;2.75;;
2638;SDS011;1329;51.384;7.122;2023-09-30T13:53:05;3.60;;;2.50;;
2638;SDS011;1329;51.384;7.122;2023-09-30T13:55:32;3.28;;;2.45;;
2638;SDS011;1329;51.384;7.122;2023-09-30T13:58:04;3.78;;;2.50;;
2638;SDS011;1329;51.384;7.122;2023-09-30T14:00:31;3.28;;;2.17;;
2638;SDS011;1329;51.384;7.122;2023-09-30T14:02:59;3.08;;;2.35;;
2638;SDS011;1329;51.384;7.122;2023-09-30T14:05:26;4.20;;;2.42;;
2638;SDS011;1329;51.384;7.122;2023-09-30T14:07:53;4.60;;;2.58;;
2638;SDS011;1329;51.384;7.122;2023-09-30T14:10:22;3.10;;;2.30;;
2638;SDS011;1329;51.384;7.122;2023-09-30T14:12:49;3.65;;;2.42;;
2638;SDS011;1329;51.384;7.122;2023-09-30T14:15:16;7.57;;;3.88;;
2638;SDS011;1329;51.384;7.122;2023-09-30T14:17:45;4.88;;;3.20;;
2638;SDS011;1329;51.384;7.122;2023-09-30T14:20:12;4.32;;;2.65;;
2638;SDS011;1329;51.384;7.122;2023-09-30T14:22:39;4.15;;;2.60;;
2638;SDS011;1329;51.384;7.122;2023-09-30T14:25:07;3.95;;;2.33;;
2638;SDS011;1329;51.384;7.122;2023-09-30T14:27:36;3.83;;;2.40;;
2638;SDS011;1329;51.384;7.122;2023-09-30T14:30:03;4.15;;;2.30;;
2638;SDS011;1329;51.384;7.122;2023-09-30T14:32:31;2.65;;;2.20;;
2638;SDS011;1329;51.384;7.122;2023-09-30T14:34:58;3.20;;;2.33;;
2638;SDS011;1329;51.384;7.122;2023-09-30T14:37:25;3.30;;;2.33;;
2638;SDS011;1329;51.384;7.122;2023-09-30T14:39:54;3.13;;;2.42;;
2638;SDS011;1329;51.384;7.122;2023-09-30T14:42:21;3.78;;;2.35;;
2638;SDS011;1329;51.384;7.122;2023-09-30T14:44:49;3.95;;;2.60;;
2638;SDS011;1329;51.384;7.122;2023-09-30T14:47:16;3.85;;;2.60;;
2638;SDS011;1329;51.384;7.122;2023-09-30T14:49:43;4.53;;;3.00;;
2638;SDS011;1329;51.384;7.122;2023-09-30T14:52:10;3.58;;;2.53;;
2638;SDS011;1329;51.384;7.122;2023-09-30T14:54:39;4.55;;;2.70;;
2638;SDS011;1329;51.384;7.122;2023-09-30T14:57:06;3.40;;;2.25;;
2638;SDS011;1329;51.384;7.122;2023-09-30T14:59:34;3.63;;;2.60;;
2638;SDS011;1329;51.384;7.122;2023-09-30T15:02:02;3.08;;;2.25;;
2638;SDS011;1329;51.384;7.122;2023-09-30T15:04:29;3.45;;;2.58;;
2638;SDS011;1329;51.384;7.122;2023-09-30T15:06:58;3.60;;;2.47;;
2638;SDS011;1329;51.384;7.122;2023-09-30T15:09:25;2.75;;;2.50;;
2638;SDS011;1329;51.384;7.122;2023-09-30T15:11:52;3.17;;;2.38;;
2638;SDS011;1329;51.384;7.122;2023-09-30T15:14:20;4.35;;;2.40;;
2638;SDS011;1329;51.384;7.122;2023-09-30T15:16:47;4.07;;;2.30;;
2638;SDS011;1329;51.384;7.122;2023-09-30T15:19:15;3.78;;;2.20;;
2638;SDS011;1329;51.384;7.122;2023-09-30T15:21:43;3.95;;;2.72;;
2638;SDS011;1329;51.384;7.122;2023-09-30T15:24:11;5.63;;;2.80;;
2638;SDS011;1329;51.384;7.122;2023-09-30T15:26:39;3.75;;;2.40;;
2638;SDS011;1329;51.384;7.122;2023-09-30T15:29:06;4.90;;;2.83;;
2638;SDS011;1329;51.384;7.122;2023-09-30T15:31:33;3.42;;;2.42;;
2638;SDS011;1329;51.384;7.122;2023-09-30T15:34:00;3.42;;;2.40;;
2638;SDS011;1329;51.384;7.122;2023-09-30T15:36:29;3.58;;;2.40;;
2638;SDS011;1329;51.384;7.122;2023-09-30T15:38:56;4.40;;;2.50;;
2638;SDS011;1329;51.384;7.122;2023-09-30T15:41:23;4.70;;;2.50;;
2638;SDS011;1329;51.384;7.122;2023-09-30T15:43:50;3.95;;;2.40;;
2638;SDS011;1329;51.384;7.122;2023-09-30T15:46:18;3.65;;;2.38;;
2638;SDS011;1329;51.384;7.122;2023-09-30T15:48:45;4.15;;;2.80;;
2638;SDS011;1329;51.384;7.122;2023-09-30T15:51:12;3.72;;;2.40;;